Time;durP1;ratioP1;P1;durP2;ratioP2;P2;SDS_P1;SDS_P2;PMS_P1;PMS_P2;Temp;Humidity;BMP_temperature;BMP_pressure;BME280_temperature;BME280_humidity;BME280_pressure;Samples;Min_cycle;Max_cycle;Signal;HPM_P1;HPM_P2
2023/10/27 00:00:09;;;;;;;42.58;20.55;;;;;;;;;;5009458;28;20206;-65
2023/10/27 00:02:38;;;;;;;40.25;21.52;;;;;;;;;;5007131;28;20197;-64
2023/10/27 00:05:03;;;;;;;36.45;19.95;;;;;;;;;;4995433;28;20318;-64
2023/10/27 00:07:29;;;;;;;42.75;21.13;;;;;;;;;;5007035;28;20843;-64
2023/10/27 00:09:54;;;;;;;41.75;21.90;;;;;;;;;;5009114;28;20195;-64
2023/10/27 00:12:19;;;;;;;37.33;21.20;;;;;;;;;;5009904;28;20195;-64
2023/10/27 00:14:44;;;;;;;41.20;21.25;;;;;;;;;;5010944;28;20198;-63
2023/10/27 00:17:09;;;;;;;43.53;22.10;;;;;;;;;;5006276;28;20171;-64
2023/10/27 00:19:35;;;;;;;38.17;20.15;;;;;;;;;;5009958;28;20183;-65
2023/10/27 00:22:00;;;;;;;38.78;20.17;;;;;;;;;;5008468;28;20289;-64
2023/10/27 00:24:25;;;;;;;43.35;21.73;;;;;;;;;;5012445;28;20190;-64
2023/10/27 00:26:50;;;;;;;41.90;22.40;;;;;;;;;;5009439;28;20653;-65
2023/10/27 00:29:16;;;;;;;46.95;21.60;;;;;;;;;;5016367;28;20170;-65
2023/10/27 00:31:41;;;;;;;39.00;21.45;;;;;;;;;;5012043;28;20521;-64
2023/10/27 00:34:06;;;;;;;39.40;20.77;;;;;;;;;;5008692;28;20238;-64
2023/10/27 00:36:31;;;;;;;40.92;20.65;;;;;;;;;;5013061;28;20373;-64
2023/10/27 00:39:15;;;;;;;41.50;21.88;;;;;;;;;;5004463;28;20192;-64
2023/10/27 00:41:40;;;;;;;35.75;19.80;;;;;;;;;;5000942;28;20612;-64
2023/10/27 00:44:05;;;;;;;39.42;21.45;;;;;;;;;;5003799;28;20203;-64
2023/10/27 00:46:31;;;;;;;37.65;20.83;;;;;;;;;;5011631;28;20175;-63
2023/10/27 00:48:56;;;;;;;40.47;21.63;;;;;;;;;;5009092;28;20182;-62
2023/10/27 00:51:22;;;;;;;38.53;20.17;;;;;;;;;;5010773;28;20230;-64
2023/10/27 00:53:47;;;;;;;41.33;22.05;;;;;;;;;;5007306;28;20203;-64
2023/10/27 00:56:12;;;;;;;40.17;21.15;;;;;;;;;;5009542;28;20191;-64
2023/10/27 00:58:38;;;;;;;35.28;17.67;;;;;;;;;;5009583;28;20633;-63
2023/10/27 01:01:04;;;;;;;44.28;21.55;;;;;;;;;;5011393;28;20260;-63
2023/10/27 01:03:29;;;;;;;39.83;19.70;;;;;;;;;;5010712;28;20653;-63
2023/10/27 01:05:54;;;;;;;39.63;20.58;;;;;;;;;;5010559;28;20193;-64
2023/10/27 01:08:20;;;;;;;41.83;20.58;;;;;;;;;;5002538;28;20222;-63
2023/10/27 01:10:45;;;;;;;42.92;20.55;;;;;;;;;;5008249;28;20206;-63
2023/10/27 01:13:10;;;;;;;40.35;21.13;;;;;;;;;;5007756;28;20246;-64
2023/10/27 01:15:35;;;;;;;39.78;20.25;;;;;;;;;;5010326;28;20210;-64
2023/10/27 01:18:00;;;;;;;46.45;23.08;;;;;;;;;;5007054;28;20270;-64
2023/10/27 01:20:26;;;;;;;38.38;20.02;;;;;;;;;;5008634;28;20715;-64
2023/10/27 01:22:51;;;;;;;41.55;21.23;;;;;;;;;;5011564;28;20205;-65
2023/10/27 01:25:16;;;;;;;41.85;20.88;;;;;;;;;;5005275;28;20714;-64
2023/10/27 01:27:42;;;;;;;40.80;20.80;;;;;;;;;;5003804;28;20660;-64
2023/10/27 01:30:08;;;;;;;37.88;20.15;;;;;;;;;;5008382;28;20341;-63
2023/10/27 01:32:34;;;;;;;37.40;19.58;;;;;;;;;;5008437;28;20649;-63
2023/10/27 01:34:59;;;;;;;38.45;19.40;;;;;;;;;;5004150;28;20189;-64
2023/10/27 01:37:24;;;;;;;33.75;17.77;;;;;;;;;;5008483;28;20262;-64
2023/10/27 01:39:50;;;;;;;38.30;19.17;;;;;;;;;;5004552;28;20657;-64
2023/10/27 01:42:16;;;;;;;35.83;19.23;;;;;;;;;;5007376;28;20207;-65
2023/10/27 01:44:41;;;;;;;34.55;18.77;;;;;;;;;;5008295;28;20198;-64
2023/10/27 01:47:06;;;;;;;34.05;17.88;;;;;;;;;;5003355;28;20654;-64
2023/10/27 01:49:31;;;;;;;32.58;17.95;;;;;;;;;;5008229;28;20202;-63
2023/10/27 01:51:57;;;;;;;30.17;17.40;;;;;;;;;;5009260;28;20203;-63
2023/10/27 01:54:22;;;;;;;32.38;17.33;;;;;;;;;;5010316;28;20297;-62
2023/10/27 01:56:47;;;;;;;34.75;18.00;;;;;;;;;;5010893;28;20187;-63
2023/10/27 01:59:12;;;;;;;32.15;18.10;;;;;;;;;;5007288;28;20184;-64
2023/10/27 02:01:37;;;;;;;31.02;18.25;;;;;;;;;;5008629;28;20198;-64
2023/10/27 02:04:03;;;;;;;32.97;17.23;;;;;;;;;;5007107;28;20187;-64
2023/10/27 02:06:28;;;;;;;28.85;16.20;;;;;;;;;;5008111;28;20887;-64
2023/10/27 02:08:53;;;;;;;33.10;15.35;;;;;;;;;;5004438;28;20584;-64
2023/10/27 02:11:19;;;;;;;30.15;17.02;;;;;;;;;;5008869;28;20252;-64
2023/10/27 02:13:44;;;;;;;28.60;15.45;;;;;;;;;;4998876;28;20209;-64
2023/10/27 02:16:10;;;;;;;31.65;16.45;;;;;;;;;;5008928;28;20178;-64
2023/10/27 02:18:35;;;;;;;28.10;16.17;;;;;;;;;;5003917;28;20210;-63
2023/10/27 02:21:00;;;;;;;25.65;14.02;;;;;;;;;;5007957;28;20230;-64
2023/10/27 02:23:26;;;;;;;28.75;14.68;;;;;;;;;;5004453;28;20180;-63
2023/10/27 02:25:51;;;;;;;26.90;15.13;;;;;;;;;;5007553;28;20278;-64
2023/10/27 02:28:16;;;;;;;23.58;13.15;;;;;;;;;;5006790;28;20597;-64
2023/10/27 02:30:42;;;;;;;27.80;14.65;;;;;;;;;;4999016;28;20206;-64
2023/10/27 02:33:07;;;;;;;26.50;14.30;;;;;;;;;;5005676;28;20202;-64
2023/10/27 02:35:32;;;;;;;22.55;13.25;;;;;;;;;;5010766;28;20190;-64
2023/10/27 02:37:57;;;;;;;25.38;14.95;;;;;;;;;;5006853;28;20194;-63
2023/10/27 02:40:22;;;;;;;24.95;14.80;;;;;;;;;;5008771;28;20644;-63
2023/10/27 02:42:48;;;;;;;23.65;13.60;;;;;;;;;;5006266;28;20262;-64
2023/10/27 02:45:14;;;;;;;22.27;12.90;;;;;;;;;;5006940;28;20244;-64
2023/10/27 02:47:39;;;;;;;20.25;12.38;;;;;;;;;;5006572;28;20297;-64
2023/10/27 02:50:04;;;;;;;22.67;13.15;;;;;;;;;;5003228;28;20234;-64
2023/10/27 02:52:29;;;;;;;20.83;12.73;;;;;;;;;;5004035;28;20661;-64
2023/10/27 02:54:55;;;;;;;17.65;11.32;;;;;;;;;;5006029;28;20559;-64
2023/10/27 02:57:20;;;;;;;22.15;12.20;;;;;;;;;;5008856;28;20179;-63
2023/10/27 02:59:45;;;;;;;22.95;13.10;;;;;;;;;;5008255;28;20185;-64
2023/10/27 03:02:11;;;;;;;21.55;12.50;;;;;;;;;;5010632;28;20179;-64
2023/10/27 03:04:36;;;;;;;18.50;11.80;;;;;;;;;;5008804;28;20183;-63
2023/10/27 03:07:01;;;;;;;21.48;13.00;;;;;;;;;;5009627;28;20232;-64
2023/10/27 03:09:26;;;;;;;21.48;11.98;;;;;;;;;;5005911;28;20175;-64
2023/10/27 03:11:52;;;;;;;21.38;11.95;;;;;;;;;;5003645;28;20195;-64
2023/10/27 03:14:18;;;;;;;20.45;10.88;;;;;;;;;;5003721;28;20669;-64
2023/10/27 03:16:43;;;;;;;20.42;12.57;;;;;;;;;;5007548;28;20182;-64
2023/10/27 03:19:09;;;;;;;19.30;11.73;;;;;;;;;;5008321;28;20214;-64
2023/10/27 03:21:34;;;;;;;17.90;10.90;;;;;;;;;;5008844;28;20249;-64
2023/10/27 03:24:00;;;;;;;20.27;11.65;;;;;;;;;;5009223;28;20274;-63
2023/10/27 03:26:25;;;;;;;20.20;12.80;;;;;;;;;;5004793;28;20274;-63
2023/10/27 03:28:50;;;;;;;18.90;12.30;;;;;;;;;;5002838;28;20187;-64
2023/10/27 03:31:15;;;;;;;17.67;12.30;;;;;;;;;;5002246;28;20198;-63
2023/10/27 03:33:40;;;;;;;20.60;11.82;;;;;;;;;;5006892;28;20534;-64
2023/10/27 03:36:07;;;;;;;21.70;12.32;;;;;;;;;;5009508;28;20175;-64
2023/10/27 03:38:32;;;;;;;22.23;12.98;;;;;;;;;;5006399;28;20211;-64
2023/10/27 03:40:58;;;;;;;19.30;12.52;;;;;;;;;;5009883;28;20333;-65
2023/10/27 03:43:23;;;;;;;19.50;11.65;;;;;;;;;;5012497;28;20194;-65
2023/10/27 03:45:48;;;;;;;19.52;11.10;;;;;;;;;;5012956;28;20190;-64
2023/10/27 03:48:14;;;;;;;21.42;12.90;;;;;;;;;;5001517;28;20179;-65
2023/10/27 03:50:39;;;;;;;19.80;11.15;;;;;;;;;;5008962;28;20305;-65
2023/10/27 03:53:05;;;;;;;18.00;10.63;;;;;;;;;;5007447;28;20329;-65
2023/10/27 03:55:30;;;;;;;17.85;11.63;;;;;;;;;;5009629;28;20179;-65
2023/10/27 03:58:11;;;;;;;17.27;11.25;;;;;;;;;;5010016;28;20548;-65
2023/10/27 04:00:36;;;;;;;20.35;11.35;;;;;;;;;;5006979;28;20186;-65
2023/10/27 04:03:01;;;;;;;18.23;11.52;;;;;;;;;;5004632;28;20561;-65
2023/10/27 04:05:27;;;;;;;20.95;11.98;;;;;;;;;;5002089;28;20175;-64
2023/10/27 04:07:52;;;;;;;16.45;10.32;;;;;;;;;;5008712;28;20187;-65
2023/10/27 04:10:17;;;;;;;20.55;11.50;;;;;;;;;;5009510;28;20199;-65
2023/10/27 04:12:42;;;;;;;22.52;11.18;;;;;;;;;;5009915;28;20230;-65
2023/10/27 04:15:08;;;;;;;19.58;10.55;;;;;;;;;;5008826;28;20569;-66
2023/10/27 04:17:33;;;;;;;17.45;10.95;;;;;;;;;;5013506;28;20182;-65
2023/10/27 04:19:59;;;;;;;15.65;10.38;;;;;;;;;;5004360;28;20203;-65
2023/10/27 04:22:24;;;;;;;19.30;11.15;;;;;;;;;;5002622;28;20194;-66
2023/10/27 04:24:49;;;;;;;18.92;11.00;;;;;;;;;;5002631;28;20526;-66
2023/10/27 04:27:15;;;;;;;19.20;10.13;;;;;;;;;;5002115;28;20209;-65
2023/10/27 04:29:40;;;;;;;20.58;11.85;;;;;;;;;;5004048;28;20233;-65
2023/10/27 04:32:05;;;;;;;17.48;10.93;;;;;;;;;;5003497;28;20559;-66
2023/10/27 04:34:31;;;;;;;21.27;12.00;;;;;;;;;;5008760;28;20681;-64
2023/10/27 04:36:56;;;;;;;17.63;10.70;;;;;;;;;;5008820;28;20191;-66
2023/10/27 04:39:21;;;;;;;17.35;11.30;;;;;;;;;;5010385;28;20182;-66
2023/10/27 04:41:46;;;;;;;17.98;10.88;;;;;;;;;;5001397;28;20824;-65
2023/10/27 04:44:12;;;;;;;15.70;10.93;;;;;;;;;;5009418;28;20175;-65
2023/10/27 04:46:37;;;;;;;16.58;10.38;;;;;;;;;;5008313;28;20656;-65
2023/10/27 04:49:02;;;;;;;16.67;10.32;;;;;;;;;;5006810;28;20183;-65
2023/10/27 04:51:27;;;;;;;16.70;10.15;;;;;;;;;;5012275;28;20207;-65
2023/10/27 04:53:53;;;;;;;13.77;9.90;;;;;;;;;;5007370;28;20589;-66
2023/10/27 04:56:18;;;;;;;18.67;11.23;;;;;;;;;;5012968;28;20202;-65
2023/10/27 04:58:44;;;;;;;16.60;10.02;;;;;;;;;;5006476;28;20225;-65
2023/10/27 05:01:09;;;;;;;14.55;9.30;;;;;;;;;;5004718;28;20587;-65
2023/10/27 05:03:35;;;;;;;18.65;10.13;;;;;;;;;;5006175;28;20183;-66
2023/10/27 05:06:09;;;;;;;17.42;10.00;;;;;;;;;;5011263;28;20232;-66
2023/10/27 05:08:35;;;;;;;16.20;10.35;;;;;;;;;;5008714;28;20175;-65
2023/10/27 05:11:00;;;;;;;19.17;9.65;;;;;;;;;;5011575;28;20202;-65
2023/10/27 05:13:25;;;;;;;17.25;10.68;;;;;;;;;;5009470;28;20332;-65
2023/10/27 05:15:54;;;;;;;15.30;9.93;;;;;;;;;;5009638;28;20228;-65
2023/10/27 05:18:19;;;;;;;14.82;9.02;;;;;;;;;;4999684;28;20191;-66
2023/10/27 05:20:44;;;;;;;14.35;9.32;;;;;;;;;;5006672;28;20712;-66
2023/10/27 05:23:10;;;;;;;16.40;10.13;;;;;;;;;;5005435;28;20202;-66
2023/10/27 05:25:35;;;;;;;14.85;8.68;;;;;;;;;;5009442;28;20257;-65
2023/10/27 05:28:01;;;;;;;14.00;9.18;;;;;;;;;;5004547;28;20175;-65
2023/10/27 05:30:26;;;;;;;14.20;9.48;;;;;;;;;;5011592;28;20260;-65
2023/10/27 05:32:51;;;;;;;14.20;9.13;;;;;;;;;;5007139;28;20210;-65
2023/10/27 05:35:16;;;;;;;12.35;8.65;;;;;;;;;;5009944;28;20175;-65
2023/10/27 05:37:41;;;;;;;12.88;8.43;;;;;;;;;;5001071;28;20190;-66
2023/10/27 05:40:07;;;;;;;14.32;8.95;;;;;;;;;;5008270;28;20217;-65
2023/10/27 05:42:32;;;;;;;13.23;8.50;;;;;;;;;;5008498;28;20179;-65
2023/10/27 05:44:57;;;;;;;16.15;9.13;;;;;;;;;;5006369;28;20210;-65
2023/10/27 05:47:22;;;;;;;11.90;8.10;;;;;;;;;;5009276;28;20187;-65
2023/10/27 05:49:48;;;;;;;14.15;8.88;;;;;;;;;;5006982;28;20749;-65
2023/10/27 05:52:14;;;;;;;13.07;8.02;;;;;;;;;;5018117;23;20266;-66
2023/10/27 05:54:39;;;;;;;12.02;8.23;;;;;;;;;;5004110;28;20705;-67
2023/10/27 05:57:07;;;;;;;11.40;7.13;;;;;;;;;;5008159;28;20187;-67
2023/10/27 05:59:32;;;;;;;13.30;8.45;;;;;;;;;;5001431;28;20175;-67
2023/10/27 06:01:58;;;;;;;14.88;9.18;;;;;;;;;;4984198;28;20611;-67
2023/10/27 06:04:23;;;;;;;12.65;8.02;;;;;;;;;;4986679;28;20221;-67
2023/10/27 06:06:48;;;;;;;14.20;8.05;;;;;;;;;;4991984;28;20183;-67
2023/10/27 06:09:14;;;;;;;12.70;8.45;;;;;;;;;;4988916;28;20662;-67
2023/10/27 06:11:39;;;;;;;13.25;8.20;;;;;;;;;;4988645;28;20234;-67
2023/10/27 06:14:04;;;;;;;15.05;9.45;;;;;;;;;;4991171;28;20207;-67
2023/10/27 06:16:30;;;;;;;13.50;8.75;;;;;;;;;;4988139;28;20283;-67
2023/10/27 06:18:55;;;;;;;13.25;8.45;;;;;;;;;;4985698;28;20181;-67
2023/10/27 06:21:20;;;;;;;12.73;8.43;;;;;;;;;;4979735;28;20730;-67
2023/10/27 06:23:45;;;;;;;13.30;9.00;;;;;;;;;;4989672;28;20581;-67
2023/10/27 06:26:11;;;;;;;15.02;9.98;;;;;;;;;;4990250;28;20211;-67
2023/10/27 06:28:36;;;;;;;13.48;8.52;;;;;;;;;;4991293;28;20565;-67
2023/10/27 06:31:04;;;;;;;14.27;9.63;;;;;;;;;;4989615;28;20579;-67
2023/10/27 06:33:32;;;;;;;17.08;9.52;;;;;;;;;;4982087;28;20207;-68
2023/10/27 06:36:01;;;;;;;12.50;8.60;;;;;;;;;;4988739;28;20175;-66
2023/10/27 06:38:26;;;;;;;13.38;8.73;;;;;;;;;;4978429;28;20172;-66
2023/10/27 06:40:51;;;;;;;18.65;10.45;;;;;;;;;;4980870;28;20204;-67
2023/10/27 06:43:17;;;;;;;11.18;7.07;;;;;;;;;;4988780;28;20382;-67
2023/10/27 06:45:42;;;;;;;14.30;8.57;;;;;;;;;;4986944;28;20700;-67
2023/10/27 06:48:07;;;;;;;15.05;8.40;;;;;;;;;;4984057;28;20179;-67
2023/10/27 06:50:33;;;;;;;12.13;7.80;;;;;;;;;;4990324;28;20203;-66
2023/10/27 06:52:58;;;;;;;15.02;8.90;;;;;;;;;;4992666;28;20199;-66
2023/10/27 06:55:23;;;;;;;12.00;8.38;;;;;;;;;;4990457;28;20202;-67
2023/10/27 06:57:48;;;;;;;13.45;8.57;;;;;;;;;;4978881;28;20267;-67
2023/10/27 07:00:15;;;;;;;13.35;8.35;;;;;;;;;;4987315;28;20176;-67
2023/10/27 07:02:40;;;;;;;13.20;8.60;;;;;;;;;;4976161;28;20188;-67
2023/10/27 07:05:08;;;;;;;11.88;7.55;;;;;;;;;;4986015;28;20669;-67
2023/10/27 07:07:33;;;;;;;14.55;8.43;;;;;;;;;;4991275;28;20183;-67
2023/10/27 07:09:59;;;;;;;13.57;8.80;;;;;;;;;;4989886;28;20191;-67
2023/10/27 07:12:24;;;;;;;12.75;7.88;;;;;;;;;;4991266;28;20270;-66
2023/10/27 07:14:49;;;;;;;13.50;8.63;;;;;;;;;;4990781;28;20265;-67
2023/10/27 07:17:14;;;;;;;11.30;8.35;;;;;;;;;;4989584;28;20180;-67
2023/10/27 07:19:40;;;;;;;11.00;7.57;;;;;;;;;;4983961;28;20655;-67
2023/10/27 07:22:05;;;;;;;12.90;7.80;;;;;;;;;;4983105;28;20207;-67
2023/10/27 07:27:33;;;;;;;13.48;8.65;;;;;;;;;;4963561;28;20183;-66
2023/10/27 07:29:59;;;;;;;13.05;8.23;;;;;;;;;;4970017;28;20183;-67
2023/10/27 07:32:24;;;;;;;13.52;8.45;;;;;;;;;;4971027;28;20218;-67
2023/10/27 07:34:49;;;;;;;12.88;7.75;;;;;;;;;;4971049;28;20267;-67
2023/10/27 07:37:15;;;;;;;13.40;8.00;;;;;;;;;;4972375;28;20180;-66
2023/10/27 07:39:40;;;;;;;14.77;8.93;;;;;;;;;;4973993;28;20179;-67
2023/10/27 07:42:07;;;;;;;12.50;7.57;;;;;;;;;;4983015;28;20261;-67
2023/10/27 07:44:32;;;;;;;14.88;7.82;;;;;;;;;;4990064;28;20265;-67
2023/10/27 07:46:57;;;;;;;10.48;6.93;;;;;;;;;;4990385;28;20179;-66
2023/10/27 07:49:23;;;;;;;13.25;7.97;;;;;;;;;;4989795;28;20302;-67
2023/10/27 07:51:49;;;;;;;11.73;7.45;;;;;;;;;;4987221;28;20219;-67
2023/10/27 07:54:15;;;;;;;10.43;7.53;;;;;;;;;;4989220;28;20294;-67
2023/10/27 07:56:40;;;;;;;13.02;8.38;;;;;;;;;;4973681;28;20274;-67
2023/10/27 07:59:05;;;;;;;10.90;6.95;;;;;;;;;;4967787;28;20184;-67
2023/10/27 08:01:30;;;;;;;12.02;7.70;;;;;;;;;;4967119;28;20204;-66
2023/10/27 08:03:55;;;;;;;12.38;7.35;;;;;;;;;;4970538;28;20180;-66
2023/10/27 08:06:21;;;;;;;10.45;6.53;;;;;;;;;;4968631;28;20187;-66
2023/10/27 08:08:46;;;;;;;12.15;6.80;;;;;;;;;;4970401;28;20214;-66
2023/10/27 08:11:16;;;;;;;11.00;6.82;;;;;;;;;;4969464;28;20298;-66
2023/10/27 08:13:41;;;;;;;10.63;6.32;;;;;;;;;;4971071;28;20210;-66
2023/10/27 08:16:06;;;;;;;10.85;6.10;;;;;;;;;;4970873;28;21159;-67
2023/10/27 08:18:31;;;;;;;9.63;6.63;;;;;;;;;;4971961;28;20316;-66
2023/10/27 08:20:57;;;;;;;11.38;7.15;;;;;;;;;;4974231;28;20275;-66
2023/10/27 08:23:22;;;;;;;8.73;6.28;;;;;;;;;;4976562;28;20912;-67
2023/10/27 08:25:51;;;;;;;11.68;6.68;;;;;;;;;;4968816;28;20291;-66
2023/10/27 08:28:17;;;;;;;14.65;7.75;;;;;;;;;;4971010;28;20215;-66
2023/10/27 08:30:42;;;;;;;11.65;7.10;;;;;;;;;;4972081;28;20230;-66
2023/10/27 08:33:09;;;;;;;12.13;7.10;;;;;;;;;;4976989;28;20211;-65
2023/10/27 08:35:35;;;;;;;10.95;6.47;;;;;;;;;;4974419;28;20187;-66
2023/10/27 08:38:00;;;;;;;9.38;5.85;;;;;;;;;;4980967;28;20183;-66
2023/10/27 08:40:25;;;;;;;8.80;6.32;;;;;;;;;;4971251;28;20612;-66
2023/10/27 08:42:51;;;;;;;11.18;7.03;;;;;;;;;;4969572;28;20180;-66
2023/10/27 08:45:17;;;;;;;9.55;6.50;;;;;;;;;;4973025;28;20211;-67
2023/10/27 08:47:42;;;;;;;9.93;6.82;;;;;;;;;;4972567;28;20199;-66
2023/10/27 08:50:07;;;;;;;9.05;5.45;;;;;;;;;;4971832;28;20196;-66
2023/10/27 08:52:33;;;;;;;8.55;5.60;;;;;;;;;;4987487;28;20191;-66
2023/10/27 08:55:00;;;;;;;9.25;5.88;;;;;;;;;;4975080;28;20180;-66
2023/10/27 08:57:25;;;;;;;8.10;5.93;;;;;;;;;;4986738;28;20218;-65
2023/10/27 08:59:51;;;;;;;9.60;6.15;;;;;;;;;;4991453;28;20219;-66
2023/10/27 09:02:26;;;;;;;8.13;5.70;;;;;;;;;;4991587;28;20208;-66
2023/10/27 09:04:59;;;;;;;7.13;5.03;;;;;;;;;;4992994;28;20238;-66
2023/10/27 09:07:24;;;;;;;9.00;6.28;;;;;;;;;;4988382;28;20187;-66
2023/10/27 09:09:49;;;;;;;9.38;5.70;;;;;;;;;;4992207;28;20183;-66
2023/10/27 09:12:21;;;;;;;8.30;6.25;;;;;;;;;;4992926;28;20262;-66
2023/10/27 09:14:57;;;;;;;9.13;6.32;;;;;;;;;;4993290;28;20180;-66
2023/10/27 09:17:22;;;;;;;8.95;5.97;;;;;;;;;;4993273;28;20183;-66
2023/10/27 09:19:47;;;;;;;9.90;5.97;;;;;;;;;;4992306;28;20190;-66
2023/10/27 09:22:16;;;;;;;8.70;6.30;;;;;;;;;;4993714;28;20282;-66
2023/10/27 09:24:41;;;;;;;7.82;5.75;;;;;;;;;;4987502;28;20191;-66
2023/10/27 09:27:06;;;;;;;11.00;6.75;;;;;;;;;;4983625;28;20265;-66
2023/10/27 09:29:39;;;;;;;9.65;6.18;;;;;;;;;;4973262;28;20189;-66
2023/10/27 09:32:04;;;;;;;9.60;6.15;;;;;;;;;;4973783;28;20214;-66
2023/10/27 09:34:31;;;;;;;11.55;7.60;;;;;;;;;;4970741;28;20646;-66
2023/10/27 09:36:58;;;;;;;10.88;6.60;;;;;;;;;;4971852;28;20203;-66
2023/10/27 09:39:24;;;;;;;9.13;6.00;;;;;;;;;;4978815;28;20219;-66
2023/10/27 09:41:49;;;;;;;11.55;7.63;;;;;;;;;;4971663;28;20207;-67
2023/10/27 09:44:14;;;;;;;9.63;7.35;;;;;;;;;;4969851;28;20188;-66
2023/10/27 09:46:42;;;;;;;9.35;6.43;;;;;;;;;;4961747;28;20444;-67
2023/10/27 09:49:11;;;;;;;8.93;5.97;;;;;;;;;;4971331;28;20246;-65
2023/10/27 09:51:37;;;;;;;10.93;7.18;;;;;;;;;;4974717;28;20207;-66
2023/10/27 09:54:04;;;;;;;9.95;6.78;;;;;;;;;;4988014;28;20207;-66
2023/10/27 09:56:29;;;;;;;10.57;7.22;;;;;;;;;;4966574;28;20703;-63
2023/10/27 09:58:55;;;;;;;10.30;7.63;;;;;;;;;;4970630;28;20187;-66
2023/10/27 10:01:20;;;;;;;11.93;7.88;;;;;;;;;;4971576;28;20211;-66
2023/10/27 10:03:45;;;;;;;11.90;7.30;;;;;;;;;;4971933;28;20257;-65
2023/10/27 10:06:15;;;;;;;13.23;7.93;;;;;;;;;;4986904;28;20736;-66
2023/10/27 10:08:41;;;;;;;11.80;7.10;;;;;;;;;;4970983;28;20198;-66
2023/10/27 10:11:11;;;;;;;11.05;7.50;;;;;;;;;;4970902;28;20203;-65
2023/10/27 10:13:36;;;;;;;11.25;7.70;;;;;;;;;;4970309;28;20206;-65
2023/10/27 10:16:03;;;;;;;10.35;7.15;;;;;;;;;;4968321;28;20200;-66
2023/10/27 10:18:34;;;;;;;10.80;7.10;;;;;;;;;;4973044;28;20654;-66
2023/10/27 10:20:59;;;;;;;12.13;7.10;;;;;;;;;;4974319;28;20200;-66
2023/10/27 10:23:46;;;;;;;11.07;7.35;;;;;;;;;;4972853;28;20183;-66
2023/10/27 10:26:11;;;;;;;11.50;6.93;;;;;;;;;;4969461;28;20310;-66
2023/10/27 10:28:37;;;;;;;13.38;6.38;;;;;;;;;;4967565;28;20180;-66
2023/10/27 10:31:16;;;;;;;7.70;4.57;;;;;;;;;;4971439;28;21945;-66
2023/10/27 10:33:44;;;;;;;3.67;2.88;;;;;;;;;;4972907;28;21927;-66
2023/10/27 10:36:22;;;;;;;5.57;3.25;;;;;;;;;;4969711;28;20184;-66
2023/10/27 10:38:51;;;;;;;5.88;3.20;;;;;;;;;;4988621;28;20208;-66
2023/10/27 10:41:18;;;;;;;2.80;1.65;;;;;;;;;;4969103;28;20203;-66
2023/10/27 10:43:44;;;;;;;2.45;1.60;;;;;;;;;;4971257;28;20237;-66
2023/10/27 10:46:13;;;;;;;1.80;1.50;;;;;;;;;;4969666;28;20670;-66
2023/10/27 10:48:45;;;;;;;3.55;1.85;;;;;;;;;;4970712;28;20273;-66
2023/10/27 10:51:14;;;;;;;3.05;1.85;;;;;;;;;;4969038;28;20222;-66
2023/10/27 10:53:39;;;;;;;4.10;2.38;;;;;;;;;;4967884;28;20342;-66
2023/10/27 10:56:04;;;;;;;2.78;2.00;;;;;;;;;;4969157;28;21525;-66
2023/10/27 10:58:31;;;;;;;2.95;2.38;;;;;;;;;;4989768;28;20693;-66
2023/10/27 11:00:57;;;;;;;3.88;2.85;;;;;;;;;;4989087;28;20650;-66
2023/10/27 11:03:23;;;;;;;3.08;1.98;;;;;;;;;;4991894;28;20197;-66
2023/10/27 11:05:50;;;;;;;3.08;1.92;;;;;;;;;;4988476;28;20317;-66
2023/10/27 11:08:25;;;;;;;2.25;1.83;;;;;;;;;;4989751;28;20681;-67
2023/10/27 11:11:00;;;;;;;1.98;1.23;;;;;;;;;;4985151;28;20206;-66
2023/10/27 11:13:26;;;;;;;2.67;1.50;;;;;;;;;;4990802;28;20195;-66
2023/10/27 11:15:52;;;;;;;2.58;1.50;;;;;;;;;;4987867;28;20190;-66
2023/10/27 11:18:17;;;;;;;4.15;2.20;;;;;;;;;;4988729;28;20263;-66
2023/10/27 11:20:43;;;;;;;2.30;1.67;;;;;;;;;;4988636;28;20196;-66
2023/10/27 11:23:16;;;;;;;2.03;1.60;;;;;;;;;;4987747;28;20202;-66
2023/10/27 11:25:42;;;;;;;2.70;1.60;;;;;;;;;;4987274;28;20198;-66
2023/10/27 11:28:16;;;;;;;2.72;1.50;;;;;;;;;;4980468;28;20192;-66
2023/10/27 11:30:42;;;;;;;2.47;1.35;;;;;;;;;;4970370;28;21714;-66
2023/10/27 11:33:08;;;;;;;2.10;1.50;;;;;;;;;;4972487;28;20217;-66
2023/10/27 11:35:34;;;;;;;1.80;1.13;;;;;;;;;;4969949;28;20176;-66
2023/10/27 11:38:02;;;;;;;2.80;1.30;;;;;;;;;;4975404;28;20187;-67
2023/10/27 11:40:27;;;;;;;4.82;1.77;;;;;;;;;;4970202;28;20696;-66
2023/10/27 11:42:52;;;;;;;2.75;1.60;;;;;;;;;;4970348;28;20187;-66
2023/10/27 11:45:18;;;;;;;3.60;1.95;;;;;;;;;;4970692;28;20191;-66
2023/10/27 11:47:43;;;;;;;5.85;2.70;;;;;;;;;;4970065;28;20196;-66
2023/10/27 11:50:09;;;;;;;5.18;2.40;;;;;;;;;;4974413;28;20190;-67
2023/10/27 11:52:34;;;;;;;4.78;2.65;;;;;;;;;;4978591;28;20820;-67
2023/10/27 11:55:00;;;;;;;5.70;3.03;;;;;;;;;;4968033;28;20199;-67
2023/10/27 11:57:25;;;;;;;3.95;3.17;;;;;;;;;;4970301;28;20285;-67
2023/10/27 11:59:50;;;;;;;3.08;2.65;;;;;;;;;;4965902;28;20176;-67
2023/10/27 12:02:15;;;;;;;3.75;2.53;;;;;;;;;;4967052;28;20271;-67
2023/10/27 12:04:41;;;;;;;5.55;3.03;;;;;;;;;;4973488;28;20187;-67
2023/10/27 12:07:06;;;;;;;4.22;3.17;;;;;;;;;;4974025;28;20627;-67
2023/10/27 12:09:31;;;;;;;3.47;2.70;;;;;;;;;;4974634;28;20192;-66
2023/10/27 12:11:56;;;;;;;4.65;2.67;;;;;;;;;;4972523;28;20717;-66
2023/10/27 12:14:23;;;;;;;4.55;2.78;;;;;;;;;;4973413;28;20286;-66
2023/10/27 12:16:48;;;;;;;3.05;2.55;;;;;;;;;;4972964;28;20223;-66
2023/10/27 12:19:13;;;;;;;4.90;3.10;;;;;;;;;;4971846;28;20188;-66
2023/10/27 12:21:39;;;;;;;5.38;3.30;;;;;;;;;;4975063;28;20295;-67
2023/10/27 12:24:04;;;;;;;3.97;3.13;;;;;;;;;;4972824;28;20195;-66
2023/10/27 12:26:29;;;;;;;5.15;2.83;;;;;;;;;;4975845;28;20628;-67
2023/10/27 12:28:55;;;;;;;5.15;3.40;;;;;;;;;;4973328;28;20183;-67
2023/10/27 12:31:20;;;;;;;4.03;2.95;;;;;;;;;;4973591;28;20968;-67
2023/10/27 12:33:45;;;;;;;5.30;3.33;;;;;;;;;;4974361;28;20200;-66
2023/10/27 12:36:11;;;;;;;5.65;3.92;;;;;;;;;;4973995;28;20196;-66
2023/10/27 12:38:38;;;;;;;4.25;3.35;;;;;;;;;;4976216;28;20184;-67
2023/10/27 12:41:04;;;;;;;4.88;3.58;;;;;;;;;;4972524;28;20191;-66
2023/10/27 12:43:29;;;;;;;5.07;3.78;;;;;;;;;;4972534;28;20179;-67
2023/10/27 12:45:54;;;;;;;6.03;3.88;;;;;;;;;;4972361;28;21871;-66
2023/10/27 12:48:20;;;;;;;5.57;3.65;;;;;;;;;;4971906;28;20600;-67
2023/10/27 12:50:45;;;;;;;5.68;3.75;;;;;;;;;;4987850;28;20222;-67
2023/10/27 12:53:11;;;;;;;6.40;4.25;;;;;;;;;;4991505;28;20580;-67
2023/10/27 12:55:37;;;;;;;6.63;3.38;;;;;;;;;;4987844;28;20211;-67
2023/10/27 12:58:08;;;;;;;5.88;4.25;;;;;;;;;;4992363;28;20214;-67
2023/10/27 13:00:35;;;;;;;5.50;3.67;;;;;;;;;;4993278;28;20658;-66
2023/10/27 13:03:00;;;;;;;5.47;3.75;;;;;;;;;;4993408;28;20429;-67
2023/10/27 13:05:26;;;;;;;6.47;4.65;;;;;;;;;;4992571;28;20188;-67
2023/10/27 13:07:52;;;;;;;7.75;4.50;;;;;;;;;;4992371;28;20180;-66
2023/10/27 13:10:17;;;;;;;6.00;4.15;;;;;;;;;;4994255;28;20258;-66
2023/10/27 13:12:43;;;;;;;8.52;4.57;;;;;;;;;;4993423;28;20262;-66
2023/10/27 13:15:09;;;;;;;7.80;4.85;;;;;;;;;;4990811;28;20186;-67
2023/10/27 13:17:37;;;;;;;6.82;4.70;;;;;;;;;;4992267;28;20184;-67
2023/10/27 13:20:02;;;;;;;6.53;4.65;;;;;;;;;;4985185;28;20185;-67
2023/10/27 13:22:29;;;;;;;6.57;5.05;;;;;;;;;;4989537;28;20208;-66
2023/10/27 13:24:55;;;;;;;9.35;4.50;;;;;;;;;;4993815;28;20646;-66
2023/10/27 13:27:20;;;;;;;7.65;5.10;;;;;;;;;;4991663;28;20275;-67
2023/10/27 13:29:46;;;;;;;8.18;5.78;;;;;;;;;;4993694;28;20267;-66
2023/10/27 13:32:12;;;;;;;10.95;5.50;;;;;;;;;;4992335;28;20285;-66
2023/10/27 13:34:37;;;;;;;7.55;5.22;;;;;;;;;;4991855;28;20242;-66
2023/10/27 13:37:04;;;;;;;5.68;4.43;;;;;;;;;;4991380;28;20635;-66
2023/10/27 13:39:31;;;;;;;3.83;3.20;;;;;;;;;;4982125;28;20176;-66
2023/10/27 13:41:56;;;;;;;5.00;3.10;;;;;;;;;;4991848;28;20642;-67
2023/10/27 13:44:22;;;;;;;2.40;1.95;;;;;;;;;;4991025;28;20180;-66
2023/10/27 13:46:47;;;;;;;2.75;2.17;;;;;;;;;;4990902;28;20678;-68
2023/10/27 13:49:13;;;;;;;2.90;1.83;;;;;;;;;;4989131;28;20222;-67
2023/10/27 13:51:38;;;;;;;2.10;1.90;;;;;;;;;;4992053;28;20713;-66
2023/10/27 13:54:04;;;;;;;4.47;1.65;;;;;;;;;;4991706;28;20586;-66
2023/10/27 13:56:29;;;;;;;1.90;1.40;;;;;;;;;;4983328;28;20187;-66
2023/10/27 13:58:55;;;;;;;1.50;1.33;;;;;;;;;;4987146;28;20175;-67
2023/10/27 14:01:20;;;;;;;2.88;1.23;;;;;;;;;;4974042;28;20214;-67
2023/10/27 14:03:45;;;;;;;2.88;1.40;;;;;;;;;;4978191;28;20202;-67
2023/10/27 14:06:15;;;;;;;1.40;1.27;;;;;;;;;;4984319;28;20206;-67
2023/10/27 14:08:43;;;;;;;1.88;1.58;;;;;;;;;;4987881;28;20184;-67
2023/10/27 14:11:08;;;;;;;1.50;1.40;;;;;;;;;;4990518;28;20288;-66
2023/10/27 14:13:34;;;;;;;3.30;1.38;;;;;;;;;;4991089;28;20338;-67
2023/10/27 14:15:59;;;;;;;3.03;1.88;;;;;;;;;;4989480;28;20301;-67
2023/10/27 14:18:26;;;;;;;2.60;2.20;;;;;;;;;;4988157;28;20176;-66
2023/10/27 14:20:52;;;;;;;2.72;1.75;;;;;;;;;;4984233;28;20325;-67
2023/10/27 14:23:18;;;;;;;2.03;1.77;;;;;;;;;;4985295;28;20183;-66
2023/10/27 14:25:43;;;;;;;2.85;1.80;;;;;;;;;;4984788;28;20574;-67